createdAt,value
2022-10-13T00:00:26.714Z,10.40
2022-10-13T00:02:56.759Z,10.40
2022-10-13T00:05:25.115Z,10.50
2022-10-13T00:07:53.383Z,10.50
2022-10-13T00:10:22.002Z,10.50
2022-10-13T00:12:50.693Z,10.60
2022-10-13T00:15:19.076Z,10.50
2022-10-13T00:17:49.766Z,10.60
2022-10-13T00:20:20.612Z,10.60
2022-10-13T00:22:50.293Z,10.60
2022-10-13T00:25:19.986Z,10.60
2022-10-13T00:27:48.757Z,10.60
2022-10-13T00:30:17.336Z,10.60
2022-10-13T00:32:46.065Z,10.60
2022-10-13T00:35:14.397Z,10.50
2022-10-13T00:37:44.167Z,10.50
2022-10-13T00:40:13.049Z,10.50
2022-10-13T00:42:42.574Z,10.50
2022-10-13T00:45:21.175Z,10.40
2022-10-13T00:47:51.600Z,10.40
2022-10-13T00:50:22.680Z,10.40
2022-10-13T00:52:54.181Z,10.40
2022-10-13T00:55:24.640Z,10.40
2022-10-13T00:57:55.549Z,10.40
2022-10-13T01:00:24.449Z,10.50
2022-10-13T01:02:53.260Z,10.50
2022-10-13T01:05:22.430Z,10.50
2022-10-13T01:07:51.402Z,10.50
2022-10-13T01:10:28.340Z,10.60
2022-10-13T01:13:01.772Z,10.60
2022-10-13T01:15:33.207Z,10.60
2022-10-13T01:18:08.188Z,10.70
2022-10-13T01:20:51.771Z,10.70
2022-10-13T01:23:29.427Z,10.70
2022-10-13T01:26:10.215Z,10.70
2022-10-13T01:28:47.334Z,10.70
2022-10-13T01:31:19.673Z,10.70
2022-10-13T01:33:53.256Z,10.80
2022-10-13T01:36:27.797Z,10.80
2022-10-13T01:38:58.704Z,10.70
2022-10-13T01:41:29.965Z,10.70
2022-10-13T01:44:02.701Z,10.70
2022-10-13T01:46:33.498Z,10.70
2022-10-13T01:49:04.256Z,10.70
2022-10-13T01:51:33.189Z,10.70
2022-10-13T01:54:01.738Z,10.70
2022-10-13T01:56:30.202Z,10.70
2022-10-13T01:59:00.268Z,10.70
2022-10-13T02:01:36.498Z,10.60
2022-10-13T02:04:12.040Z,10.50
2022-10-13T02:06:42.278Z,10.40
2022-10-13T02:09:13.231Z,10.50
2022-10-13T02:11:46.631Z,10.40
2022-10-13T02:14:17.449Z,10.40
2022-10-13T02:16:48.059Z,10.40
2022-10-13T02:19:17.691Z,10.40
2022-10-13T02:21:46.240Z,10.30
2022-10-13T02:24:15.470Z,10.30
2022-10-13T02:26:44.051Z,10.30
2022-10-13T02:29:13.467Z,10.30
2022-10-13T02:31:42.348Z,10.40
2022-10-13T02:34:12.359Z,10.40
2022-10-13T02:36:40.938Z,10.40
2022-10-13T02:39:10.021Z,10.40
2022-10-13T02:41:38.349Z,10.40
2022-10-13T02:44:06.810Z,10.50
2022-10-13T02:46:35.749Z,10.40
2022-10-13T02:49:04.219Z,10.50
2022-10-13T02:51:37.619Z,10.50
2022-10-13T02:54:11.411Z,10.50
2022-10-13T02:56:39.868Z,10.40
2022-10-13T02:59:08.289Z,10.50
2022-10-13T03:01:41.537Z,10.50
2022-10-13T03:04:10.448Z,10.50
2022-10-13T03:06:40.597Z,10.40
2022-10-13T03:09:08.941Z,10.40
2022-10-13T03:11:37.450Z,10.40
2022-10-13T03:14:06.149Z,10.40
2022-10-13T03:16:34.540Z,10.40
2022-10-13T03:19:03.028Z,10.30
2022-10-13T03:21:32.418Z,10.30
2022-10-13T03:24:02.268Z,10.30
2022-10-13T03:26:30.572Z,10.30
2022-10-13T03:28:59.088Z,10.30
2022-10-13T03:31:27.609Z,10.30
2022-10-13T03:33:55.998Z,10.20
2022-10-13T03:36:24.490Z,10.20
2022-10-13T03:38:52.969Z,10.20
2022-10-13T03:41:22.719Z,10.10
2022-10-13T03:43:50.949Z,10.10
2022-10-13T03:46:19.479Z,10.10
2022-10-13T03:48:48.201Z,10.10
2022-10-13T03:51:17.042Z,10.10
2022-10-13T03:53:46.020Z,10.10
2022-10-13T03:56:16.364Z,10.10
2022-10-13T03:58:46.623Z,10.00
2022-10-13T04:01:15.224Z,10.10
2022-10-13T04:03:43.754Z,10.10
2022-10-13T04:06:12.205Z,10.10
2022-10-13T04:08:40.457Z,10.00
2022-10-13T04:11:10.685Z,10.10
2022-10-13T04:13:39.014Z,10.10
2022-10-13T04:16:11.090Z,10.20
2022-10-13T04:18:44.338Z,10.10
2022-10-13T04:21:14.107Z,10.10
2022-10-13T04:23:42.656Z,10.20
2022-10-13T04:26:16.890Z,10.20
2022-10-13T04:28:45.486Z,10.20
2022-10-13T04:31:15.215Z,10.20
2022-10-13T04:33:44.441Z,10.30
2022-10-13T04:36:14.157Z,10.30
2022-10-13T04:38:42.485Z,10.30
2022-10-13T04:41:11.244Z,10.30
2022-10-13T04:43:39.505Z,10.40
2022-10-13T04:46:09.329Z,10.40
2022-10-13T04:48:38.995Z,10.50
2022-10-13T04:51:08.421Z,10.50
2022-10-13T04:53:37.068Z,10.40
2022-10-13T04:56:06.164Z,10.50
2022-10-13T04:58:34.544Z,10.50
2022-10-13T05:01:03.078Z,10.50
2022-10-13T05:03:31.547Z,10.50
2022-10-13T05:06:01.346Z,10.50
2022-10-13T05:08:29.526Z,10.50
2022-10-13T05:10:58.224Z,10.60
2022-10-13T05:13:27.125Z,10.60
2022-10-13T05:15:55.446Z,10.60
2022-10-13T05:18:24.059Z,10.70
2022-10-13T05:20:52.475Z,10.70
2022-10-13T05:23:22.196Z,10.70
2022-10-13T05:25:50.394Z,10.80
2022-10-13T05:28:18.753Z,10.80
2022-10-13T05:30:47.115Z,10.80
2022-10-13T05:33:15.313Z,10.80
2022-10-13T05:35:43.625Z,10.90
2022-10-13T05:38:11.846Z,10.90
2022-10-13T05:40:41.485Z,10.80
2022-10-13T05:43:09.745Z,10.90
2022-10-13T05:45:38.005Z,10.90
2022-10-13T05:48:06.355Z,10.90
2022-10-13T05:50:35.667Z,10.90
2022-10-13T05:53:04.563Z,10.90
2022-10-13T05:55:32.876Z,10.90
2022-10-13T05:58:03.062Z,11.00
2022-10-13T06:00:31.455Z,10.90
2022-10-13T06:03:04.876Z,11.00
2022-10-13T06:05:33.666Z,11.00
2022-10-13T06:08:02.305Z,11.00
2022-10-13T06:10:30.547Z,11.10
2022-10-13T06:12:58.715Z,11.10
2022-10-13T06:15:28.556Z,11.10
2022-10-13T06:17:57.054Z,11.10
2022-10-13T06:20:25.423Z,11.20
2022-10-13T06:22:53.665Z,11.30
2022-10-13T06:25:21.935Z,11.30
2022-10-13T06:27:50.437Z,11.40
2022-10-13T06:30:18.706Z,11.40
2022-10-13T06:32:48.396Z,11.40
2022-10-13T06:35:16.765Z,11.50
2022-10-13T06:37:46.558Z,11.60
2022-10-13T06:40:14.885Z,11.70
2022-10-13T06:42:43.094Z,11.70
2022-10-13T06:45:11.824Z,11.80
2022-10-13T06:47:40.185Z,11.90
2022-10-13T06:50:10.304Z,12.00
2022-10-13T06:52:38.536Z,12.10
2022-10-13T06:55:07.044Z,12.20
2022-10-13T06:57:35.385Z,12.30
2022-10-13T07:00:03.815Z,12.40
2022-10-13T07:02:32.107Z,12.40
2022-10-13T07:05:00.693Z,12.40
2022-10-13T07:07:30.344Z,12.40
2022-10-13T07:09:58.606Z,12.40
2022-10-13T07:12:26.837Z,12.40
2022-10-13T07:14:55.196Z,12.30
2022-10-13T07:17:23.646Z,12.40
2022-10-13T07:19:55.775Z,12.50
2022-10-13T07:22:26.496Z,12.60
2022-10-13T07:24:56.105Z,12.60
2022-10-13T07:27:24.830Z,12.70
2022-10-13T07:29:53.465Z,12.70
2022-10-13T07:32:21.740Z,12.60
2022-10-13T07:34:52.845Z,12.60
2022-10-13T07:37:21.558Z,12.60
2022-10-13T07:39:50.145Z,12.70
2022-10-13T07:42:19.837Z,12.70
2022-10-13T07:44:48.165Z,12.70
2022-10-13T07:47:16.385Z,12.70
2022-10-13T07:49:44.635Z,12.90
2022-10-13T07:52:12.998Z,12.90
2022-10-13T07:54:41.275Z,13.00
2022-10-13T07:57:09.674Z,13.10
2022-10-13T07:59:39.724Z,13.30
2022-10-13T08:02:07.971Z,13.40
2022-10-13T08:04:36.675Z,13.50
2022-10-13T08:07:06.001Z,13.50
2022-10-13T08:09:34.434Z,13.50
2022-10-13T08:12:02.803Z,13.60
2022-10-13T08:14:31.564Z,13.70
2022-10-13T08:17:01.926Z,13.80
2022-10-13T08:19:30.145Z,13.80
2022-10-13T08:22:02.114Z,13.90
2022-10-13T08:24:30.957Z,13.90
2022-10-13T08:26:59.434Z,14.00
2022-10-13T08:29:27.867Z,14.00
2022-10-13T08:31:56.153Z,14.10
2022-10-13T08:34:26.414Z,14.30
2022-10-13T08:36:56.826Z,14.40
2022-10-13T08:39:25.566Z,14.40
2022-10-13T08:41:54.475Z,14.50
2022-10-13T08:47:14.702Z,14.70
2022-10-13T08:49:46.355Z,14.80
2022-10-13T08:52:18.629Z,14.80
2022-10-13T08:54:47.255Z,14.80
2022-10-13T08:57:15.797Z,14.90
2022-10-13T08:59:44.176Z,15.00
2022-10-13T09:02:13.616Z,15.10
2022-10-13T09:04:43.059Z,15.20
2022-10-13T09:07:16.269Z,15.40
2022-10-13T09:09:44.550Z,15.50
2022-10-13T09:12:15.874Z,15.50
2022-10-13T09:14:44.320Z,15.40
2022-10-13T09:17:18.465Z,15.40
2022-10-13T09:19:58.289Z,15.40
2022-10-13T09:22:29.357Z,15.30
2022-10-13T09:25:09.408Z,15.40
2022-10-13T09:27:44.448Z,15.30
2022-10-13T09:30:33.248Z,15.40
2022-10-13T09:33:14.687Z,15.40
2022-10-13T09:35:44.189Z,15.60
2022-10-13T09:38:15.340Z,15.60
2022-10-13T09:43:22.310Z,15.80
2022-10-13T09:45:50.680Z,15.80
2022-10-13T09:48:22.374Z,15.80
2022-10-13T09:50:51.939Z,15.80
2022-10-13T09:53:24.550Z,15.90
2022-10-13T09:56:08.120Z,16.10
2022-10-13T09:58:39.114Z,16.20
2022-10-13T10:01:07.680Z,16.30
2022-10-13T10:03:36.965Z,16.40
2022-10-13T10:06:07.104Z,16.40
2022-10-13T10:09:02.026Z,16.30
2022-10-13T10:11:33.838Z,16.40
2022-10-13T10:14:04.699Z,16.40
2022-10-13T10:16:35.522Z,16.40
2022-10-13T10:19:07.546Z,16.40
2022-10-13T10:21:38.787Z,16.30
2022-10-13T10:24:18.199Z,16.30
2022-10-13T10:26:50.431Z,16.30
2022-10-13T10:29:25.877Z,16.40
2022-10-13T10:32:11.209Z,16.50
2022-10-13T10:34:43.532Z,16.50
2022-10-13T10:37:26.041Z,16.60
2022-10-13T10:40:01.957Z,16.60
2022-10-13T10:42:40.584Z,16.60
2022-10-13T10:45:15.155Z,16.70
2022-10-13T10:47:44.585Z,16.80
2022-10-13T10:50:15.561Z,16.90
2022-10-13T10:52:50.072Z,17.00
2022-10-13T10:55:22.244Z,16.90
2022-10-13T10:57:54.551Z,16.90
2022-10-13T11:03:02.482Z,17.00
2022-10-13T11:05:52.835Z,17.10
2022-10-13T11:08:29.288Z,17.20
2022-10-13T11:11:15.945Z,17.40
2022-10-13T11:13:54.076Z,17.50
2022-10-13T11:16:28.529Z,17.50
2022-10-13T11:18:59.184Z,17.30
2022-10-13T11:21:27.914Z,17.20
2022-10-13T11:24:01.090Z,17.10
2022-10-13T11:26:41.738Z,17.00
2022-10-13T11:29:40.745Z,16.90
2022-10-13T11:32:42.966Z,16.90
2022-10-13T11:35:21.797Z,17.00
2022-10-13T11:38:06.018Z,17.10
2022-10-13T11:40:35.739Z,17.30
2022-10-13T11:43:15.900Z,17.40
2022-10-13T11:46:01.989Z,17.40
2022-10-13T11:48:49.076Z,17.30
2022-10-13T11:51:23.464Z,17.40
2022-10-13T11:53:55.717Z,17.40
2022-10-13T11:56:33.169Z,17.50
2022-10-13T11:59:01.679Z,17.50
2022-10-13T12:01:31.458Z,17.50
2022-10-13T12:04:00.579Z,17.40
2022-10-13T12:06:33.992Z,17.30
2022-10-13T12:09:03.549Z,17.30
2022-10-13T12:11:34.310Z,17.10
2022-10-13T12:14:02.740Z,17.00
2022-10-13T12:16:32.769Z,17.10
2022-10-13T12:19:10.416Z,17.10
2022-10-13T12:21:49.739Z,17.20
2022-10-13T12:24:18.169Z,17.30
2022-10-13T12:26:46.459Z,17.60
2022-10-13T12:29:15.619Z,17.90
2022-10-13T12:31:46.154Z,18.00
2022-10-13T12:34:19.550Z,18.20
2022-10-13T12:39:26.719Z,18.00
2022-10-13T12:41:56.351Z,18.00
2022-10-13T12:44:26.211Z,17.90
2022-10-13T12:46:58.961Z,17.80
2022-10-13T12:49:27.914Z,17.70
2022-10-13T12:51:59.329Z,17.50
2022-10-13T12:54:30.321Z,17.50
2022-10-13T12:56:59.457Z,17.40
2022-10-13T12:59:28.600Z,17.40
2022-10-13T13:01:59.950Z,17.30
2022-10-13T13:04:32.789Z,17.30
2022-10-13T13:07:01.547Z,17.20
2022-10-13T13:09:30.645Z,17.20
2022-10-13T13:12:22.745Z,17.10
2022-10-13T13:14:55.164Z,17.10
2022-10-13T13:17:52.862Z,17.10
2022-10-13T13:20:22.963Z,17.10
2022-10-13T13:22:52.099Z,17.10
2022-10-13T13:25:20.422Z,17.30
2022-10-13T13:27:49.049Z,17.30
2022-10-13T13:30:18.347Z,17.50
2022-10-13T13:32:48.337Z,17.60
2022-10-13T13:35:16.938Z,17.80
2022-10-13T13:37:48.131Z,18.00
2022-10-13T13:40:17.693Z,18.00
2022-10-13T13:42:46.083Z,18.00
2022-10-13T13:45:14.750Z,18.00
2022-10-13T13:47:43.048Z,18.00
2022-10-13T13:50:15.380Z,17.90
2022-10-13T13:52:43.679Z,17.90
2022-10-13T13:55:11.979Z,17.80
2022-10-13T13:57:40.308Z,17.70
2022-10-13T14:00:09.100Z,17.60
2022-10-13T14:02:37.341Z,17.60
2022-10-13T14:05:05.971Z,17.60
2022-10-13T14:07:35.870Z,17.60
2022-10-13T14:10:04.394Z,17.50
2022-10-13T14:12:33.155Z,17.60
2022-10-13T14:15:01.427Z,17.60
2022-10-13T14:17:29.711Z,17.60
2022-10-13T14:19:58.047Z,17.60
2022-10-13T14:22:26.875Z,17.60
2022-10-13T14:24:56.807Z,17.60
2022-10-13T14:27:25.185Z,17.60
2022-10-13T14:29:53.456Z,17.50
2022-10-13T14:32:22.018Z,17.40
2022-10-13T14:34:50.707Z,17.30
2022-10-13T14:37:22.238Z,17.20
2022-10-13T14:39:51.904Z,17.20
2022-10-13T14:42:21.816Z,17.10
2022-10-13T14:44:50.136Z,17.10
2022-10-13T14:47:18.809Z,17.10
2022-10-13T14:49:47.726Z,17.20
2022-10-13T14:52:16.026Z,17.10
2022-10-13T14:54:45.136Z,17.10
2022-10-13T14:57:16.400Z,17.10
2022-10-13T14:59:47.703Z,17.10
2022-10-13T15:02:16.028Z,17.00
2022-10-13T15:04:44.524Z,17.00
2022-10-13T15:07:12.905Z,17.00
2022-10-13T15:10:06.830Z,16.90
2022-10-13T15:12:29.566Z,16.80
2022-10-13T15:14:59.275Z,16.80
2022-10-13T15:17:28.169Z,16.70
2022-10-13T15:19:56.741Z,16.70
2022-10-13T15:22:25.087Z,16.60
2022-10-13T15:24:53.422Z,16.60
2022-10-13T15:27:21.718Z,16.50
2022-10-13T15:29:50.078Z,16.50
2022-10-13T15:32:20.739Z,16.40
2022-10-13T15:34:49.323Z,16.40
2022-10-13T15:37:17.584Z,16.40
2022-10-13T15:39:46.106Z,16.30
2022-10-13T15:42:14.658Z,16.30
2022-10-13T15:45:12.205Z,16.30
2022-10-13T15:47:32.988Z,16.30
2022-10-13T15:50:01.225Z,16.30
2022-10-13T15:52:36.185Z,16.20
2022-10-13T15:55:04.573Z,16.20
2022-10-13T15:57:32.957Z,16.20
2022-10-13T16:00:01.839Z,16.10
2022-10-13T16:02:30.340Z,16.10
2022-10-13T16:05:05.041Z,16.10
2022-10-13T16:07:33.551Z,16.00
2022-10-13T16:10:01.947Z,16.00
2022-10-13T16:12:30.443Z,16.00
2022-10-13T16:14:58.800Z,16.00
2022-10-13T16:17:27.620Z,16.00
2022-10-13T16:19:56.235Z,16.00
2022-10-13T16:22:26.220Z,16.00
2022-10-13T16:24:54.528Z,15.90
2022-10-13T16:27:24.270Z,15.90
2022-10-13T16:29:52.637Z,15.80
2022-10-13T16:32:21.551Z,15.80
2022-10-13T16:34:50.576Z,15.70
2022-10-13T16:37:19.551Z,15.70
2022-10-13T16:39:53.422Z,15.70
2022-10-13T16:42:22.476Z,15.60
2022-10-13T16:44:50.856Z,15.60
2022-10-13T16:47:22.351Z,15.60
2022-10-13T16:49:52.152Z,15.60
2022-10-13T16:52:20.865Z,15.50
2022-10-13T16:54:51.280Z,15.60
2022-10-13T16:57:23.526Z,15.50
2022-10-13T16:59:56.794Z,15.40
2022-10-13T17:02:25.350Z,15.50
2022-10-13T17:04:53.877Z,15.50
2022-10-13T17:07:27.482Z,15.50
2022-10-13T17:09:57.394Z,15.50
2022-10-13T17:12:26.062Z,15.50
2022-10-13T17:14:54.891Z,15.40
2022-10-13T17:17:23.684Z,15.50
2022-10-13T17:19:52.418Z,15.50
2022-10-13T17:22:20.850Z,15.50
2022-10-13T17:24:49.514Z,15.50
2022-10-13T17:27:19.735Z,15.50
2022-10-13T17:29:48.502Z,15.50
2022-10-13T17:32:16.881Z,15.40
2022-10-13T17:34:45.211Z,15.40
2022-10-13T17:37:13.522Z,15.40
2022-10-13T17:39:41.775Z,15.40
2022-10-13T17:42:10.152Z,15.40
2022-10-13T17:44:39.936Z,15.40
2022-10-13T17:47:09.482Z,15.40
2022-10-13T17:49:42.129Z,15.40
2022-10-13T17:52:10.442Z,15.50
2022-10-13T17:54:42.858Z,15.40
2022-10-13T17:57:11.432Z,15.40
2022-10-13T17:59:42.752Z,15.40
2022-10-13T18:02:12.455Z,15.30
2022-10-13T18:04:40.999Z,15.30
2022-10-13T18:07:09.412Z,15.30
2022-10-13T18:09:38.242Z,15.30
2022-10-13T18:12:06.931Z,15.20
2022-10-13T18:14:35.322Z,15.20
2022-10-13T18:17:05.383Z,15.10
2022-10-13T18:19:37.850Z,15.10
2022-10-13T18:22:11.220Z,15.00
2022-10-13T18:24:43.793Z,15.00
2022-10-13T18:27:12.800Z,15.00
2022-10-13T18:29:46.337Z,14.90
2022-10-13T18:32:20.123Z,14.80
2022-10-13T18:34:54.268Z,14.80
2022-10-13T18:37:25.253Z,14.70
2022-10-13T18:39:55.614Z,14.70
2022-10-13T18:42:28.197Z,14.70
2022-10-13T18:44:58.687Z,14.70
2022-10-13T18:47:32.578Z,14.60
2022-10-13T18:50:01.148Z,14.70
2022-10-13T18:52:31.698Z,14.70
2022-10-13T18:55:00.682Z,14.70
2022-10-13T18:57:28.951Z,14.80
2022-10-13T18:59:57.262Z,14.80
2022-10-13T19:02:25.650Z,14.80
2022-10-13T19:04:55.410Z,14.80
2022-10-13T19:07:23.919Z,14.70
2022-10-13T19:09:52.251Z,14.70
2022-10-13T19:12:20.602Z,14.80
2022-10-13T19:14:51.234Z,14.70
2022-10-13T19:17:23.232Z,14.80
2022-10-13T19:19:52.396Z,14.70
2022-10-13T19:22:25.532Z,14.70
2022-10-13T19:24:53.897Z,14.60
2022-10-13T19:27:22.595Z,14.50
2022-10-13T19:29:52.946Z,14.40
2022-10-13T19:32:21.598Z,14.40
2022-10-13T19:34:50.027Z,14.30
2022-10-13T19:37:20.262Z,14.40
2022-10-13T19:39:51.010Z,14.30
2022-10-13T19:42:20.170Z,14.30
2022-10-13T19:44:48.480Z,14.30
2022-10-13T19:47:19.311Z,14.20
2022-10-13T19:49:51.331Z,14.20
2022-10-13T19:52:20.029Z,14.20
2022-10-13T19:55:01.578Z,14.20
2022-10-13T19:57:29.969Z,14.20
2022-10-13T19:59:58.679Z,14.10
2022-10-13T20:02:37.767Z,14.00
2022-10-13T20:05:11.387Z,14.00
2022-10-13T20:07:42.099Z,13.90
2022-10-13T20:10:16.668Z,13.90
2022-10-13T20:12:56.697Z,13.90
2022-10-13T20:15:34.088Z,14.00
2022-10-13T20:18:02.951Z,13.80
2022-10-13T20:20:31.787Z,13.80
2022-10-13T20:23:00.456Z,13.80
2022-10-13T20:25:30.473Z,13.80
2022-10-13T20:28:03.404Z,13.70
2022-10-13T20:30:35.134Z,13.70
2022-10-13T20:33:10.918Z,13.70
2022-10-13T20:35:39.352Z,13.70
2022-10-13T20:38:07.854Z,13.70
2022-10-13T20:40:37.613Z,13.70
2022-10-13T20:43:06.340Z,13.60
2022-10-13T20:45:50.124Z,13.60
2022-10-13T20:48:27.484Z,13.60
2022-10-13T20:51:03.922Z,13.60
2022-10-13T20:53:36.654Z,13.60
2022-10-13T20:56:09.954Z,13.50
2022-10-13T20:58:39.611Z,13.50
2022-10-13T21:01:14.814Z,13.50
2022-10-13T21:03:43.475Z,13.40
2022-10-13T21:06:26.516Z,13.40
2022-10-13T21:08:57.607Z,13.40
2022-10-13T21:11:27.572Z,13.50
2022-10-13T21:14:07.840Z,13.40
2022-10-13T21:16:41.876Z,13.40
2022-10-13T21:19:21.022Z,13.40
2022-10-13T21:21:53.214Z,13.40
2022-10-13T21:24:21.493Z,13.40
2022-10-13T21:26:51.203Z,13.40
2022-10-13T21:29:19.532Z,13.40
2022-10-13T21:31:48.192Z,13.40
2022-10-13T21:34:16.654Z,13.40
2022-10-13T21:36:45.795Z,13.30
2022-10-13T21:39:14.072Z,13.30
2022-10-13T21:41:42.399Z,13.40
2022-10-13T21:44:13.674Z,13.30
2022-10-13T21:46:42.163Z,13.30
2022-10-13T21:49:11.073Z,13.20
2022-10-13T21:51:40.812Z,13.30
2022-10-13T21:54:10.166Z,13.30
2022-10-13T21:56:38.876Z,13.20
2022-10-13T21:59:07.553Z,13.20
2022-10-13T22:01:37.183Z,13.20
2022-10-13T22:04:06.383Z,13.20
2022-10-13T22:06:34.812Z,13.20
2022-10-13T22:09:04.351Z,13.20
2022-10-13T22:11:33.391Z,13.20
2022-10-13T22:14:01.993Z,13.20
2022-10-13T22:16:35.130Z,13.20
2022-10-13T22:19:04.973Z,13.20
2022-10-13T22:21:34.604Z,13.20
2022-10-13T22:24:04.184Z,13.20
2022-10-13T22:26:33.743Z,13.20
2022-10-13T22:29:02.778Z,13.20
2022-10-13T22:31:33.300Z,13.20
2022-10-13T22:34:02.215Z,13.20
2022-10-13T22:36:32.473Z,13.20
2022-10-13T22:39:02.176Z,13.20
2022-10-13T22:41:30.544Z,13.20
2022-10-13T22:43:59.411Z,13.20
2022-10-13T22:46:28.574Z,13.20
2022-10-13T22:48:56.782Z,13.20
2022-10-13T22:51:26.393Z,13.20
2022-10-13T22:53:56.734Z,13.20
2022-10-13T22:56:26.043Z,13.20
2022-10-13T22:58:54.934Z,13.20
2022-10-13T23:01:23.993Z,13.20
2022-10-13T23:03:53.334Z,13.10
2022-10-13T23:06:22.422Z,13.20
2022-10-13T23:08:51.143Z,13.20
2022-10-13T23:11:20.881Z,13.20
2022-10-13T23:13:49.279Z,13.10
2022-10-13T23:16:18.399Z,13.10
2022-10-13T23:18:46.990Z,13.10
2022-10-13T23:21:16.049Z,13.10
2022-10-13T23:23:44.469Z,13.10
2022-10-13T23:26:13.737Z,13.10
2022-10-13T23:28:43.606Z,13.10
2022-10-13T23:31:13.477Z,13.10
2022-10-13T23:33:41.768Z,13.10
2022-10-13T23:36:10.577Z,13.10
2022-10-13T23:38:38.958Z,13.10
2022-10-13T23:41:08.458Z,13.10
2022-10-13T23:43:36.757Z,13.10
2022-10-13T23:46:06.888Z,13.10
2022-10-13T23:48:35.118Z,13.10
2022-10-13T23:51:06.628Z,13.10
2022-10-13T23:53:35.617Z,13.10
2022-10-13T23:56:03.897Z,13.10
2022-10-13T23:58:32.363Z,13.10
